sensor_id;sensor_type;location;lat;lon;timestamp;temperature;humidity
10051;DHT22;5065;46.942;7.432;2023-07-28T00:02:13;20.90;99.90
10051;DHT22;5065;46.942;7.432;2023-07-28T00:04:40;20.90;99.90
10051;DHT22;5065;46.942;7.432;2023-07-28T00:07:07;20.90;99.90
10051;DHT22;5065;46.942;7.432;2023-07-28T00:09:34;21.00;99.90
10051;DHT22;5065;46.942;7.432;2023-07-28T00:12:01;20.90;99.90
10051;DHT22;5065;46.942;7.432;2023-07-28T00:14:30;21.00;99.90
10051;DHT22;5065;46.942;7.432;2023-07-28T00:16:57;20.90;99.90
10051;DHT22;5065;46.942;7.432;2023-07-28T00:19:24;20.90;99.90
10051;DHT22;5065;46.942;7.432;2023-07-28T00:21:52;21.20;99.90
10051;DHT22;5065;46.942;7.432;2023-07-28T00:24:22;21.00;99.90
10051;DHT22;5065;46.942;7.432;2023-07-28T00:26:49;20.90;99.90
10051;DHT22;5065;46.942;7.432;2023-07-28T00:29:16;21.00;99.90
10051;DHT22;5065;46.942;7.432;2023-07-28T00:31:45;21.00;99.90
10051;DHT22;5065;46.942;7.432;2023-07-28T00:34:12;20.90;99.90
10051;DHT22;5065;46.942;7.432;2023-07-28T00:36:39;20.90;99.90
10051;DHT22;5065;46.942;7.432;2023-07-28T00:39:07;20.90;99.90
10051;DHT22;5065;46.942;7.432;2023-07-28T00:41:34;20.90;99.90
10051;DHT22;5065;46.942;7.432;2023-07-28T00:44:01;20.70;99.90
10051;DHT22;5065;46.942;7.432;2023-07-28T00:46:29;20.90;99.90
10051;DHT22;5065;46.942;7.432;2023-07-28T00:48:57;20.90;99.90
10051;DHT22;5065;46.942;7.432;2023-07-28T00:51:24;20.90;99.90
10051;DHT22;5065;46.942;7.432;2023-07-28T00:53:51;20.90;99.90
10051;DHT22;5065;46.942;7.432;2023-07-28T00:56:19;20.90;99.90
10051;DHT22;5065;46.942;7.432;2023-07-28T00:58:48;20.90;99.90
10051;DHT22;5065;46.942;7.432;2023-07-28T01:01:15;20.90;99.90
10051;DHT22;5065;46.942;7.432;2023-07-28T01:03:42;20.90;99.90
10051;DHT22;5065;46.942;7.432;2023-07-28T01:06:20;20.90;99.90
10051;DHT22;5065;46.942;7.432;2023-07-28T01:08:57;20.90;99.90
10051;DHT22;5065;46.942;7.432;2023-07-28T01:11:26;20.90;99.90
10051;DHT22;5065;46.942;7.432;2023-07-28T01:13:53;20.80;99.90
10051;DHT22;5065;46.942;7.432;2023-07-28T01:16:20;21.00;99.90
10051;DHT22;5065;46.942;7.432;2023-07-28T01:18:48;21.00;99.90
10051;DHT22;5065;46.942;7.432;2023-07-28T01:21:20;21.20;99.90
10051;DHT22;5065;46.942;7.432;2023-07-28T01:23:55;21.00;99.90
10051;DHT22;5065;46.942;7.432;2023-07-28T01:26:30;21.00;99.90
10051;DHT22;5065;46.942;7.432;2023-07-28T01:28:58;21.10;99.90
10051;DHT22;5065;46.942;7.432;2023-07-28T01:31:26;21.10;99.90
10051;DHT22;5065;46.942;7.432;2023-07-28T01:33:53;21.00;99.90
10051;DHT22;5065;46.942;7.432;2023-07-28T01:36:20;21.00;99.90
10051;DHT22;5065;46.942;7.432;2023-07-28T01:38:47;21.00;99.90
10051;DHT22;5065;46.942;7.432;2023-07-28T01:41:14;21.00;99.90
10051;DHT22;5065;46.942;7.432;2023-07-28T01:43:43;21.00;99.90
10051;DHT22;5065;46.942;7.432;2023-07-28T01:46:10;21.00;99.90
10051;DHT22;5065;46.942;7.432;2023-07-28T01:48:37;21.00;99.90
10051;DHT22;5065;46.942;7.432;2023-07-28T01:51:04;21.00;99.90
10051;DHT22;5065;46.942;7.432;2023-07-28T01:53:31;20.90;99.90
10051;DHT22;5065;46.942;7.432;2023-07-28T01:55:59;20.90;99.90
10051;DHT22;5065;46.942;7.432;2023-07-28T01:58:26;21.00;99.90
10051;DHT22;5065;46.942;7.432;2023-07-28T02:00:55;20.90;99.90
10051;DHT22;5065;46.942;7.432;2023-07-28T02:03:22;20.90;99.90
10051;DHT22;5065;46.942;7.432;2023-07-28T02:05:50;20.80;99.90
10051;DHT22;5065;46.942;7.432;2023-07-28T02:08:18;20.90;99.90
10051;DHT22;5065;46.942;7.432;2023-07-28T02:10:45;20.90;99.90
10051;DHT22;5065;46.942;7.432;2023-07-28T02:13:12;20.90;99.90
10051;DHT22;5065;46.942;7.432;2023-07-28T02:15:40;20.90;99.90
10051;DHT22;5065;46.942;7.432;2023-07-28T02:18:09;20.80;99.90
10051;DHT22;5065;46.942;7.432;2023-07-28T02:20:36;20.80;99.90
10051;DHT22;5065;46.942;7.432;2023-07-28T02:23:04;20.80;99.90
10051;DHT22;5065;46.942;7.432;2023-07-28T02:25:32;20.80;99.90
10051;DHT22;5065;46.942;7.432;2023-07-28T02:27:59;20.70;99.90
10051;DHT22;5065;46.942;7.432;2023-07-28T02:30:26;20.70;99.90
10051;DHT22;5065;46.942;7.432;2023-07-28T02:32:53;20.80;99.90
10051;DHT22;5065;46.942;7.432;2023-07-28T02:35:21;20.70;99.90
10051;DHT22;5065;46.942;7.432;2023-07-28T02:37:49;20.70;99.90
10051;DHT22;5065;46.942;7.432;2023-07-28T02:40:16;20.70;99.90
10051;DHT22;5065;46.942;7.432;2023-07-28T02:42:43;20.70;99.90
10051;DHT22;5065;46.942;7.432;2023-07-28T02:45:10;20.70;99.90
10051;DHT22;5065;46.942;7.432;2023-07-28T02:47:37;20.60;99.90
10051;DHT22;5065;46.942;7.432;2023-07-28T02:50:05;20.60;99.90
10051;DHT22;5065;46.942;7.432;2023-07-28T02:52:34;20.60;99.90
10051;DHT22;5065;46.942;7.432;2023-07-28T02:55:01;20.70;99.90
10051;DHT22;5065;46.942;7.432;2023-07-28T02:57:28;20.60;99.90
10051;DHT22;5065;46.942;7.432;2023-07-28T02:59:55;20.60;99.90
10051;DHT22;5065;46.942;7.432;2023-07-28T03:02:22;20.60;99.90
10051;DHT22;5065;46.942;7.432;2023-07-28T03:04:50;20.60;99.90
10051;DHT22;5065;46.942;7.432;2023-07-28T03:07:17;20.60;99.90
10051;DHT22;5065;46.942;7.432;2023-07-28T03:09:45;20.60;99.90
10051;DHT22;5065;46.942;7.432;2023-07-28T03:12:12;20.60;99.90
10051;DHT22;5065;46.942;7.432;2023-07-28T03:14:40;20.50;99.90
10051;DHT22;5065;46.942;7.432;2023-07-28T03:17:07;20.50;99.90
10051;DHT22;5065;46.942;7.432;2023-07-28T03:19:34;20.50;99.90
10051;DHT22;5065;46.942;7.432;2023-07-28T03:22:01;20.50;99.90
10051;DHT22;5065;46.942;7.432;2023-07-28T03:24:28;20.50;99.90
10051;DHT22;5065;46.942;7.432;2023-07-28T03:26:57;20.50;99.90
10051;DHT22;5065;46.942;7.432;2023-07-28T03:29:24;20.40;99.90
10051;DHT22;5065;46.942;7.432;2023-07-28T03:31:52;20.30;99.90
10051;DHT22;5065;46.942;7.432;2023-07-28T03:34:20;20.30;99.90
10051;DHT22;5065;46.942;7.432;2023-07-28T03:36:47;20.30;99.90
10051;DHT22;5065;46.942;7.432;2023-07-28T03:39:14;20.20;99.90
10051;DHT22;5065;46.942;7.432;2023-07-28T03:41:41;20.20;99.90
10051;DHT22;5065;46.942;7.432;2023-07-28T03:44:09;20.20;99.90
10051;DHT22;5065;46.942;7.432;2023-07-28T03:46:37;20.20;99.90
10051;DHT22;5065;46.942;7.432;2023-07-28T03:49:04;20.20;99.90
10051;DHT22;5065;46.942;7.432;2023-07-28T03:51:31;20.20;99.90
10051;DHT22;5065;46.942;7.432;2023-07-28T03:53:58;20.20;99.90
10051;DHT22;5065;46.942;7.432;2023-07-28T03:56:25;20.20;99.90
10051;DHT22;5065;46.942;7.432;2023-07-28T03:58:53;20.20;99.90
10051;DHT22;5065;46.942;7.432;2023-07-28T04:01:22;20.20;99.90
10051;DHT22;5065;46.942;7.432;2023-07-28T04:03:50;20.20;99.90
10051;DHT22;5065;46.942;7.432;2023-07-28T04:06:17;20.20;99.90
10051;DHT22;5065;46.942;7.432;2023-07-28T04:08:44;20.20;99.90
10051;DHT22;5065;46.942;7.432;2023-07-28T04:11:11;20.30;99.90
10051;DHT22;5065;46.942;7.432;2023-07-28T04:13:39;20.20;99.90
10051;DHT22;5065;46.942;7.432;2023-07-28T04:16:06;20.10;99.90
10051;DHT22;5065;46.942;7.432;2023-07-28T04:18:35;20.10;99.90
10051;DHT22;5065;46.942;7.432;2023-07-28T04:21:02;20.10;99.90
10051;DHT22;5065;46.942;7.432;2023-07-28T04:23:31;20.20;99.90
10051;DHT22;5065;46.942;7.432;2023-07-28T04:25:58;20.20;99.90
10051;DHT22;5065;46.942;7.432;2023-07-28T04:28:25;20.20;99.90
10051;DHT22;5065;46.942;7.432;2023-07-28T04:30:52;20.10;99.90
10051;DHT22;5065;46.942;7.432;2023-07-28T04:33:19;20.20;99.90
10051;DHT22;5065;46.942;7.432;2023-07-28T04:35:48;20.20;99.90
10051;DHT22;5065;46.942;7.432;2023-07-28T04:38:15;20.20;99.90
10051;DHT22;5065;46.942;7.432;2023-07-28T04:40:43;20.20;99.90
10051;DHT22;5065;46.942;7.432;2023-07-28T04:43:10;20.20;99.90
10051;DHT22;5065;46.942;7.432;2023-07-28T04:45:37;20.30;99.90
10051;DHT22;5065;46.942;7.432;2023-07-28T04:48:05;20.30;99.90
10051;DHT22;5065;46.942;7.432;2023-07-28T04:50:32;20.30;99.90
10051;DHT22;5065;46.942;7.432;2023-07-28T04:53:00;20.30;99.90
10051;DHT22;5065;46.942;7.432;2023-07-28T04:55:27;20.30;99.90
10051;DHT22;5065;46.942;7.432;2023-07-28T04:57:55;20.30;99.90
10051;DHT22;5065;46.942;7.432;2023-07-28T05:00:22;20.30;99.90
10051;DHT22;5065;46.942;7.432;2023-07-28T05:02:50;20.40;99.90
10051;DHT22;5065;46.942;7.432;2023-07-28T05:05:17;20.40;99.90
10051;DHT22;5065;46.942;7.432;2023-07-28T05:07:44;20.40;99.90
10051;DHT22;5065;46.942;7.432;2023-07-28T05:10:13;20.50;99.90
10051;DHT22;5065;46.942;7.432;2023-07-28T05:12:40;20.50;99.90
10051;DHT22;5065;46.942;7.432;2023-07-28T05:15:08;20.60;99.90
10051;DHT22;5065;46.942;7.432;2023-07-28T05:17:36;20.70;99.90
10051;DHT22;5065;46.942;7.432;2023-07-28T05:20:03;20.80;99.90
10051;DHT22;5065;46.942;7.432;2023-07-28T05:22:30;20.90;99.90
10051;DHT22;5065;46.942;7.432;2023-07-28T05:24:58;20.90;99.90
10051;DHT22;5065;46.942;7.432;2023-07-28T05:27:26;20.90;99.90
10051;DHT22;5065;46.942;7.432;2023-07-28T05:29:53;21.00;99.90
10051;DHT22;5065;46.942;7.432;2023-07-28T05:32:20;20.90;99.90
10051;DHT22;5065;46.942;7.432;2023-07-28T05:34:48;21.00;99.90
10051;DHT22;5065;46.942;7.432;2023-07-28T05:37:15;21.00;99.90
10051;DHT22;5065;46.942;7.432;2023-07-28T05:39:42;21.10;99.90
10051;DHT22;5065;46.942;7.432;2023-07-28T05:42:10;21.10;99.90
10051;DHT22;5065;46.942;7.432;2023-07-28T05:44:38;21.20;99.90
10051;DHT22;5065;46.942;7.432;2023-07-28T05:47:06;21.20;99.90
10051;DHT22;5065;46.942;7.432;2023-07-28T05:49:33;21.30;99.90
10051;DHT22;5065;46.942;7.432;2023-07-28T05:52:01;21.40;99.90
10051;DHT22;5065;46.942;7.432;2023-07-28T05:54:28;21.50;99.90
10051;DHT22;5065;46.942;7.432;2023-07-28T05:56:55;21.70;99.90
10051;DHT22;5065;46.942;7.432;2023-07-28T05:59:22;22.00;99.90
10051;DHT22;5065;46.942;7.432;2023-07-28T06:01:50;22.20;99.90
10051;DHT22;5065;46.942;7.432;2023-07-28T06:04:20;22.60;99.90
10051;DHT22;5065;46.942;7.432;2023-07-28T06:06:47;22.90;99.90
10051;DHT22;5065;46.942;7.432;2023-07-28T06:09:14;23.20;99.90
10051;DHT22;5065;46.942;7.432;2023-07-28T06:11:43;23.60;99.90
10051;DHT22;5065;46.942;7.432;2023-07-28T06:14:10;23.90;99.90
10051;DHT22;5065;46.942;7.432;2023-07-28T06:16:37;24.20;99.90
10051;DHT22;5065;46.942;7.432;2023-07-28T06:19:06;24.40;99.90
10051;DHT22;5065;46.942;7.432;2023-07-28T06:21:34;24.50;99.90
10051;DHT22;5065;46.942;7.432;2023-07-28T06:24:02;24.70;99.90
10051;DHT22;5065;46.942;7.432;2023-07-28T06:26:29;24.90;99.90
10051;DHT22;5065;46.942;7.432;2023-07-28T06:28:56;25.10;99.90
10051;DHT22;5065;46.942;7.432;2023-07-28T06:31:24;25.40;99.90
10051;DHT22;5065;46.942;7.432;2023-07-28T06:33:51;25.50;99.90
10051;DHT22;5065;46.942;7.432;2023-07-28T06:36:22;25.60;99.90
10051;DHT22;5065;46.942;7.432;2023-07-28T06:38:49;25.60;99.90
10051;DHT22;5065;46.942;7.432;2023-07-28T06:41:18;25.70;99.90
10051;DHT22;5065;46.942;7.432;2023-07-28T06:43:45;25.60;99.90
10051;DHT22;5065;46.942;7.432;2023-07-28T06:46:14;25.70;99.90
10051;DHT22;5065;46.942;7.432;2023-07-28T06:48:41;25.80;99.90
10051;DHT22;5065;46.942;7.432;2023-07-28T06:51:09;25.90;99.90
10051;DHT22;5065;46.942;7.432;2023-07-28T06:53:37;26.00;99.90
10051;DHT22;5065;46.942;7.432;2023-07-28T06:56:05;26.30;99.90
10051;DHT22;5065;46.942;7.432;2023-07-28T06:58:32;26.50;99.90
10051;DHT22;5065;46.942;7.432;2023-07-28T07:00:59;26.80;99.90
10051;DHT22;5065;46.942;7.432;2023-07-28T07:03:26;26.90;99.90
10051;DHT22;5065;46.942;7.432;2023-07-28T07:05:54;27.00;99.90
10051;DHT22;5065;46.942;7.432;2023-07-28T07:08:21;27.30;99.90
10051;DHT22;5065;46.942;7.432;2023-07-28T07:10:50;27.50;99.90
10051;DHT22;5065;46.942;7.432;2023-07-28T07:13:17;27.80;99.90
10051;DHT22;5065;46.942;7.432;2023-07-28T07:15:45;28.00;99.90
10051;DHT22;5065;46.942;7.432;2023-07-28T07:18:12;28.30;99.90
10051;DHT22;5065;46.942;7.432;2023-07-28T07:20:39;28.40;99.90
10051;DHT22;5065;46.942;7.432;2023-07-28T07:23:06;28.70;99.90
10051;DHT22;5065;46.942;7.432;2023-07-28T07:25:34;28.80;99.90
10051;DHT22;5065;46.942;7.432;2023-07-28T07:28:03;29.00;99.90
10051;DHT22;5065;46.942;7.432;2023-07-28T07:30:32;29.20;99.90
10051;DHT22;5065;46.942;7.432;2023-07-28T07:33:00;29.30;99.90
10051;DHT22;5065;46.942;7.432;2023-07-28T07:35:28;29.40;99.40
10051;DHT22;5065;46.942;7.432;2023-07-28T07:37:55;29.50;97.80
10051;DHT22;5065;46.942;7.432;2023-07-28T07:40:22;29.60;97.60
10051;DHT22;5065;46.942;7.432;2023-07-28T07:42:49;29.80;97.00
10051;DHT22;5065;46.942;7.432;2023-07-28T07:45:19;29.90;97.00
10051;DHT22;5065;46.942;7.432;2023-07-28T07:47:46;29.90;96.20
10051;DHT22;5065;46.942;7.432;2023-07-28T07:50:14;29.60;94.40
10051;DHT22;5065;46.942;7.432;2023-07-28T07:52:41;29.50;94.90
10051;DHT22;5065;46.942;7.432;2023-07-28T07:55:09;29.40;95.60
10051;DHT22;5065;46.942;7.432;2023-07-28T07:57:37;29.30;96.20
10051;DHT22;5065;46.942;7.432;2023-07-28T08:00:05;29.20;96.30
10051;DHT22;5065;46.942;7.432;2023-07-28T08:02:34;29.20;96.50
10051;DHT22;5065;46.942;7.432;2023-07-28T08:05:01;29.20;94.50
10051;DHT22;5065;46.942;7.432;2023-07-28T08:07:29;29.30;94.50
10051;DHT22;5065;46.942;7.432;2023-07-28T08:09:56;29.50;94.00
10051;DHT22;5065;46.942;7.432;2023-07-28T08:12:23;29.80;93.90
10051;DHT22;5065;46.942;7.432;2023-07-28T08:14:50;30.00;93.00
10051;DHT22;5065;46.942;7.432;2023-07-28T08:17:18;30.20;92.60
10051;DHT22;5065;46.942;7.432;2023-07-28T08:19:47;30.30;91.40
10051;DHT22;5065;46.942;7.432;2023-07-28T08:22:14;30.40;91.40
10051;DHT22;5065;46.942;7.432;2023-07-28T08:24:41;30.70;91.70
10051;DHT22;5065;46.942;7.432;2023-07-28T08:27:08;30.80;91.90
10051;DHT22;5065;46.942;7.432;2023-07-28T08:29:35;31.00;91.40
10051;DHT22;5065;46.942;7.432;2023-07-28T08:32:03;31.00;91.80
10051;DHT22;5065;46.942;7.432;2023-07-28T08:34:30;31.00;91.40
10051;DHT22;5065;46.942;7.432;2023-07-28T08:36:59;30.90;90.80
10051;DHT22;5065;46.942;7.432;2023-07-28T08:39:28;30.70;91.30
10051;DHT22;5065;46.942;7.432;2023-07-28T08:41:59;30.50;91.70
10051;DHT22;5065;46.942;7.432;2023-07-28T08:44:27;30.30;91.60
10051;DHT22;5065;46.942;7.432;2023-07-28T08:46:56;30.00;91.20
10051;DHT22;5065;46.942;7.432;2023-07-28T08:49:23;29.90;91.80
10051;DHT22;5065;46.942;7.432;2023-07-28T08:51:50;29.90;91.40
10051;DHT22;5065;46.942;7.432;2023-07-28T08:54:19;29.90;91.70
10051;DHT22;5065;46.942;7.432;2023-07-28T08:56:46;29.90;91.50
10051;DHT22;5065;46.942;7.432;2023-07-28T08:59:20;29.90;90.50
10051;DHT22;5065;46.942;7.432;2023-07-28T09:01:50;30.20;91.70
10051;DHT22;5065;46.942;7.432;2023-07-28T09:04:21;30.30;90.60
10051;DHT22;5065;46.942;7.432;2023-07-28T09:06:49;30.60;91.00
10051;DHT22;5065;46.942;7.432;2023-07-28T09:09:20;30.70;90.10
10051;DHT22;5065;46.942;7.432;2023-07-28T09:11:50;30.80;88.00
10051;DHT22;5065;46.942;7.432;2023-07-28T09:14:19;30.80;89.40
10051;DHT22;5065;46.942;7.432;2023-07-28T09:16:47;30.80;89.90
10051;DHT22;5065;46.942;7.432;2023-07-28T09:19:14;30.80;88.80
10051;DHT22;5065;46.942;7.432;2023-07-28T09:21:44;30.60;86.80
10051;DHT22;5065;46.942;7.432;2023-07-28T09:24:13;30.40;87.60
10051;DHT22;5065;46.942;7.432;2023-07-28T09:26:43;30.40;88.50
10051;DHT22;5065;46.942;7.432;2023-07-28T09:29:15;30.30;88.40
10051;DHT22;5065;46.942;7.432;2023-07-28T09:31:42;30.20;89.00
10051;DHT22;5065;46.942;7.432;2023-07-28T09:34:10;30.10;87.70
10051;DHT22;5065;46.942;7.432;2023-07-28T09:36:37;30.10;88.40
10051;DHT22;5065;46.942;7.432;2023-07-28T09:39:06;30.10;87.60
10051;DHT22;5065;46.942;7.432;2023-07-28T09:41:34;30.00;88.10
10051;DHT22;5065;46.942;7.432;2023-07-28T09:44:05;29.90;87.30
10051;DHT22;5065;46.942;7.432;2023-07-28T09:46:33;29.70;87.90
10051;DHT22;5065;46.942;7.432;2023-07-28T09:49:05;29.60;89.00
10051;DHT22;5065;46.942;7.432;2023-07-28T09:51:34;29.50;88.60
10051;DHT22;5065;46.942;7.432;2023-07-28T09:54:05;29.30;88.90
10051;DHT22;5065;46.942;7.432;2023-07-28T09:56:33;29.30;88.90
10051;DHT22;5065;46.942;7.432;2023-07-28T09:59:04;29.20;89.10
10051;DHT22;5065;46.942;7.432;2023-07-28T10:01:34;29.00;89.50
10051;DHT22;5065;46.942;7.432;2023-07-28T10:04:01;29.00;90.00
10051;DHT22;5065;46.942;7.432;2023-07-28T10:06:29;29.00;89.50
10051;DHT22;5065;46.942;7.432;2023-07-28T10:08:57;28.90;90.40
10051;DHT22;5065;46.942;7.432;2023-07-28T10:11:24;28.90;90.30
10051;DHT22;5065;46.942;7.432;2023-07-28T10:13:54;28.90;90.20
10051;DHT22;5065;46.942;7.432;2023-07-28T10:16:37;28.80;91.30
10051;DHT22;5065;46.942;7.432;2023-07-28T10:19:04;28.80;91.40
10051;DHT22;5065;46.942;7.432;2023-07-28T10:21:32;28.80;90.80
10051;DHT22;5065;46.942;7.432;2023-07-28T10:24:05;28.70;90.60
10051;DHT22;5065;46.942;7.432;2023-07-28T10:26:36;28.70;91.00
10051;DHT22;5065;46.942;7.432;2023-07-28T10:29:10;28.50;90.70
10051;DHT22;5065;46.942;7.432;2023-07-28T10:31:50;28.50;90.70
10051;DHT22;5065;46.942;7.432;2023-07-28T10:34:18;28.40;91.30
10051;DHT22;5065;46.942;7.432;2023-07-28T10:36:52;28.40;91.50
10051;DHT22;5065;46.942;7.432;2023-07-28T10:39:23;28.30;91.80
10051;DHT22;5065;46.942;7.432;2023-07-28T10:42:01;28.20;90.90
10051;DHT22;5065;46.942;7.432;2023-07-28T10:44:30;28.20;90.90
10051;DHT22;5065;46.942;7.432;2023-07-28T10:46:58;28.10;91.40
10051;DHT22;5065;46.942;7.432;2023-07-28T10:49:26;28.20;91.60
10051;DHT22;5065;46.942;7.432;2023-07-28T10:51:53;28.20;91.30
10051;DHT22;5065;46.942;7.432;2023-07-28T10:54:21;28.30;91.70
10051;DHT22;5065;46.942;7.432;2023-07-28T10:56:48;28.40;91.30
10051;DHT22;5065;46.942;7.432;2023-07-28T10:59:16;28.60;91.40
10051;DHT22;5065;46.942;7.432;2023-07-28T11:01:43;28.80;91.30
10051;DHT22;5065;46.942;7.432;2023-07-28T11:04:14;29.00;91.20
10051;DHT22;5065;46.942;7.432;2023-07-28T11:06:42;29.00;91.20
10051;DHT22;5065;46.942;7.432;2023-07-28T11:09:10;29.10;91.60
10051;DHT22;5065;46.942;7.432;2023-07-28T11:11:38;29.20;91.90
10051;DHT22;5065;46.942;7.432;2023-07-28T11:14:07;29.20;91.20
10051;DHT22;5065;46.942;7.432;2023-07-28T11:16:35;29.20;90.90
10051;DHT22;5065;46.942;7.432;2023-07-28T11:19:08;29.00;90.80
10051;DHT22;5065;46.942;7.432;2023-07-28T11:21:37;29.00;91.00
10051;DHT22;5065;46.942;7.432;2023-07-28T11:24:05;28.90;91.00
10051;DHT22;5065;46.942;7.432;2023-07-28T11:26:34;28.90;90.80
10051;DHT22;5065;46.942;7.432;2023-07-28T11:29:02;28.80;91.30
10051;DHT22;5065;46.942;7.432;2023-07-28T11:31:30;28.80;91.80
10051;DHT22;5065;46.942;7.432;2023-07-28T11:33:59;28.80;91.80
10051;DHT22;5065;46.942;7.432;2023-07-28T11:36:28;28.70;91.90
10051;DHT22;5065;46.942;7.432;2023-07-28T11:38:59;28.70;91.50
10051;DHT22;5065;46.942;7.432;2023-07-28T11:41:29;28.70;91.80
10051;DHT22;5065;46.942;7.432;2023-07-28T11:43:56;28.60;92.00
10051;DHT22;5065;46.942;7.432;2023-07-28T11:46:33;28.60;91.70
10051;DHT22;5065;46.942;7.432;2023-07-28T11:49:08;28.60;91.80
10051;DHT22;5065;46.942;7.432;2023-07-28T11:51:40;28.50;91.90
10051;DHT22;5065;46.942;7.432;2023-07-28T11:54:12;28.50;91.90
10051;DHT22;5065;46.942;7.432;2023-07-28T11:56:41;28.60;91.80
10051;DHT22;5065;46.942;7.432;2023-07-28T11:59:08;28.50;91.30
10051;DHT22;5065;46.942;7.432;2023-07-28T12:01:51;28.50;90.90
10051;DHT22;5065;46.942;7.432;2023-07-28T12:04:25;28.40;90.80
10051;DHT22;5065;46.942;7.432;2023-07-28T12:07:03;28.40;90.30
10051;DHT22;5065;46.942;7.432;2023-07-28T12:09:34;28.40;90.90
10051;DHT22;5065;46.942;7.432;2023-07-28T12:12:15;28.40;90.90
10051;DHT22;5065;46.942;7.432;2023-07-28T12:14:42;28.30;91.50
10051;DHT22;5065;46.942;7.432;2023-07-28T12:17:12;28.30;91.80
10051;DHT22;5065;46.942;7.432;2023-07-28T12:19:41;28.20;91.90
10051;DHT22;5065;46.942;7.432;2023-07-28T12:22:09;28.20;92.00
10051;DHT22;5065;46.942;7.432;2023-07-28T12:24:38;28.20;92.10
10051;DHT22;5065;46.942;7.432;2023-07-28T12:27:10;28.20;92.00
10051;DHT22;5065;46.942;7.432;2023-07-28T12:29:41;28.20;92.00
10051;DHT22;5065;46.942;7.432;2023-07-28T12:32:08;28.10;92.30
10051;DHT22;5065;46.942;7.432;2023-07-28T12:34:35;28.10;92.40
10051;DHT22;5065;46.942;7.432;2023-07-28T12:37:03;28.10;92.60
10051;DHT22;5065;46.942;7.432;2023-07-28T12:39:30;28.10;92.40
10051;DHT22;5065;46.942;7.432;2023-07-28T12:41:59;28.10;92.30
10051;DHT22;5065;46.942;7.432;2023-07-28T12:44:26;28.10;92.30
10051;DHT22;5065;46.942;7.432;2023-07-28T12:46:53;28.20;91.70
10051;DHT22;5065;46.942;7.432;2023-07-28T12:49:23;28.20;91.70
10051;DHT22;5065;46.942;7.432;2023-07-28T12:51:50;28.20;92.20
10051;DHT22;5065;46.942;7.432;2023-07-28T12:54:24;28.10;91.90
10051;DHT22;5065;46.942;7.432;2023-07-28T12:56:51;28.10;91.80
10051;DHT22;5065;46.942;7.432;2023-07-28T12:59:20;28.10;92.20
10051;DHT22;5065;46.942;7.432;2023-07-28T13:01:47;28.10;92.20
10051;DHT22;5065;46.942;7.432;2023-07-28T13:04:14;28.10;91.80
10051;DHT22;5065;46.942;7.432;2023-07-28T13:06:41;28.10;91.60
10051;DHT22;5065;46.942;7.432;2023-07-28T13:09:09;28.10;91.40
10051;DHT22;5065;46.942;7.432;2023-07-28T13:11:36;28.10;90.90
10051;DHT22;5065;46.942;7.432;2023-07-28T13:14:04;28.10;91.10
10051;DHT22;5065;46.942;7.432;2023-07-28T13:16:32;28.20;90.70
10051;DHT22;5065;46.942;7.432;2023-07-28T13:18:59;28.20;91.10
10051;DHT22;5065;46.942;7.432;2023-07-28T13:21:27;28.30;90.20
10051;DHT22;5065;46.942;7.432;2023-07-28T13:23:54;28.30;90.80
10051;DHT22;5065;46.942;7.432;2023-07-28T13:26:21;28.30;90.80
10051;DHT22;5065;46.942;7.432;2023-07-28T13:28:48;28.30;90.80
10051;DHT22;5065;46.942;7.432;2023-07-28T13:31:16;28.30;90.90
10051;DHT22;5065;46.942;7.432;2023-07-28T13:33:44;28.40;90.40
10051;DHT22;5065;46.942;7.432;2023-07-28T13:36:13;28.40;89.60
10051;DHT22;5065;46.942;7.432;2023-07-28T13:38:40;28.40;90.30
10051;DHT22;5065;46.942;7.432;2023-07-28T13:41:07;28.40;90.50
10051;DHT22;5065;46.942;7.432;2023-07-28T13:43:35;28.50;89.80
10051;DHT22;5065;46.942;7.432;2023-07-28T13:46:03;28.50;89.20
10051;DHT22;5065;46.942;7.432;2023-07-28T13:48:31;28.50;88.70
10051;DHT22;5065;46.942;7.432;2023-07-28T13:50:59;28.50;89.00
10051;DHT22;5065;46.942;7.432;2023-07-28T13:53:27;28.50;88.20
10051;DHT22;5065;46.942;7.432;2023-07-28T13:55:55;28.60;87.00
10051;DHT22;5065;46.942;7.432;2023-07-28T13:58:25;28.50;87.50
10051;DHT22;5065;46.942;7.432;2023-07-28T14:00:52;28.50;85.80
10051;DHT22;5065;46.942;7.432;2023-07-28T14:03:19;28.60;87.40
10051;DHT22;5065;46.942;7.432;2023-07-28T14:05:47;28.50;88.00
10051;DHT22;5065;46.942;7.432;2023-07-28T14:08:16;28.60;88.60
10051;DHT22;5065;46.942;7.432;2023-07-28T14:10:47;28.60;87.60
10051;DHT22;5065;46.942;7.432;2023-07-28T14:13:17;28.60;87.10
10051;DHT22;5065;46.942;7.432;2023-07-28T14:15:44;28.60;87.30
10051;DHT22;5065;46.942;7.432;2023-07-28T14:18:11;28.60;88.10
10051;DHT22;5065;46.942;7.432;2023-07-28T14:20:39;28.60;87.60
10051;DHT22;5065;46.942;7.432;2023-07-28T14:23:23;28.50;87.50
10051;DHT22;5065;46.942;7.432;2023-07-28T14:25:51;28.50;87.40
10051;DHT22;5065;46.942;7.432;2023-07-28T14:28:19;28.50;87.50
10051;DHT22;5065;46.942;7.432;2023-07-28T14:30:46;28.40;87.30
10051;DHT22;5065;46.942;7.432;2023-07-28T14:33:13;28.40;87.60
10051;DHT22;5065;46.942;7.432;2023-07-28T14:35:44;28.40;88.10
10051;DHT22;5065;46.942;7.432;2023-07-28T14:38:11;28.40;88.30
10051;DHT22;5065;46.942;7.432;2023-07-28T14:40:40;28.40;88.80
10051;DHT22;5065;46.942;7.432;2023-07-28T14:43:10;28.40;89.20
10051;DHT22;5065;46.942;7.432;2023-07-28T14:45:37;28.40;89.60
10051;DHT22;5065;46.942;7.432;2023-07-28T14:48:04;28.40;89.40
10051;DHT22;5065;46.942;7.432;2023-07-28T14:50:31;28.40;89.20
10051;DHT22;5065;46.942;7.432;2023-07-28T14:52:59;28.40;89.30
10051;DHT22;5065;46.942;7.432;2023-07-28T14:55:27;28.40;89.20
10051;DHT22;5065;46.942;7.432;2023-07-28T14:57:55;28.40;88.40
10051;DHT22;5065;46.942;7.432;2023-07-28T15:00:22;28.40;88.10
10051;DHT22;5065;46.942;7.432;2023-07-28T15:02:50;28.40;88.20
10051;DHT22;5065;46.942;7.432;2023-07-28T15:05:17;28.30;88.50
10051;DHT22;5065;46.942;7.432;2023-07-28T15:07:44;28.40;89.00
10051;DHT22;5065;46.942;7.432;2023-07-28T15:10:11;28.40;89.20
10051;DHT22;5065;46.942;7.432;2023-07-28T15:12:39;28.30;88.50
10051;DHT22;5065;46.942;7.432;2023-07-28T15:15:09;28.40;89.30
10051;DHT22;5065;46.942;7.432;2023-07-28T15:17:36;28.40;89.20
10051;DHT22;5065;46.942;7.432;2023-07-28T15:20:04;28.40;89.60
10051;DHT22;5065;46.942;7.432;2023-07-28T15:22:32;28.40;89.50
10051;DHT22;5065;46.942;7.432;2023-07-28T15:24:59;28.40;89.70
10051;DHT22;5065;46.942;7.432;2023-07-28T15:27:26;28.40;89.60
10051;DHT22;5065;46.942;7.432;2023-07-28T15:29:53;28.30;89.10
10051;DHT22;5065;46.942;7.432;2023-07-28T15:32:22;28.30;89.50
10051;DHT22;5065;46.942;7.432;2023-07-28T15:34:49;28.30;88.80
10051;DHT22;5065;46.942;7.432;2023-07-28T15:37:17;28.30;90.20
10051;DHT22;5065;46.942;7.432;2023-07-28T15:39:44;28.10;90.10
10051;DHT22;5065;46.942;7.432;2023-07-28T15:42:11;28.10;90.10
10051;DHT22;5065;46.942;7.432;2023-07-28T15:44:38;28.00;92.30
10051;DHT22;5065;46.942;7.432;2023-07-28T15:47:05;27.80;95.40
10051;DHT22;5065;46.942;7.432;2023-07-28T15:49:33;27.60;97.50
10051;DHT22;5065;46.942;7.432;2023-07-28T15:52:00;27.50;97.40